createdAt,value
2018-06-17T00:00:43.082Z,0.00
2018-06-17T00:02:14.891Z,0.00
2018-06-17T00:03:46.700Z,0.00
2018-06-17T00:05:18.661Z,0.00
2018-06-17T00:06:50.319Z,0.00
2018-06-17T00:08:22.127Z,0.00
2018-06-17T00:09:53.936Z,0.00
2018-06-17T00:11:25.845Z,0.00
2018-06-17T00:12:57.553Z,0.00
2018-06-17T00:14:29.362Z,0.00
2018-06-17T00:16:01.172Z,0.00
2018-06-17T00:17:33.080Z,0.00
2018-06-17T00:19:04.790Z,0.00
2018-06-17T00:20:36.598Z,0.00
2018-06-17T00:22:08.415Z,0.00
2018-06-17T00:23:40.216Z,0.00
2018-06-17T00:25:12.027Z,0.00
2018-06-17T00:26:43.833Z,0.00
2018-06-17T00:28:15.644Z,0.00
2018-06-17T00:29:47.451Z,0.00
2018-06-17T00:31:19.268Z,0.00
2018-06-17T00:32:51.069Z,0.00
2018-06-17T00:34:22.879Z,0.00
2018-06-17T00:35:54.787Z,0.00
2018-06-17T00:37:26.496Z,0.00
2018-06-17T00:38:58.305Z,0.00
2018-06-17T00:40:30.116Z,0.00
2018-06-17T00:42:02.073Z,0.00
2018-06-17T00:43:33.731Z,0.00
2018-06-17T00:45:05.541Z,0.00
2018-06-17T00:46:37.350Z,0.00
2018-06-17T00:48:09.259Z,0.00
2018-06-17T00:49:40.968Z,0.00
2018-06-17T00:51:12.777Z,0.00
2018-06-17T00:52:44.584Z,0.00
2018-06-17T00:54:16.494Z,0.00
2018-06-17T00:55:48.202Z,0.00
2018-06-17T00:57:20.011Z,0.00
2018-06-17T00:58:51.820Z,0.00
2018-06-17T01:00:23.633Z,0.00
2018-06-17T01:01:55.439Z,0.00
2018-06-17T01:03:27.248Z,0.00
2018-06-17T01:04:59.056Z,0.00
2018-06-17T01:06:31.015Z,0.00
2018-06-17T01:08:02.673Z,0.00
2018-06-17T01:09:34.486Z,0.00
2018-06-17T01:11:06.292Z,0.00
2018-06-17T01:12:38.200Z,0.00
2018-06-17T01:14:09.909Z,0.00
2018-06-17T01:15:41.721Z,0.00
2018-06-17T01:17:13.527Z,0.00
2018-06-17T01:18:45.435Z,0.00
2018-06-17T01:20:17.143Z,0.00
2018-06-17T01:21:48.955Z,0.00
2018-06-17T01:23:20.763Z,0.00
2018-06-17T01:24:52.570Z,0.00
2018-06-17T01:26:24.379Z,0.00
2018-06-17T01:27:56.189Z,0.00
2018-06-17T01:29:54.264Z,0.00
2018-06-17T01:34:15.255Z,0.00
2018-06-17T01:35:47.090Z,0.00
2018-06-17T01:37:18.898Z,0.00
2018-06-17T01:38:50.664Z,0.00
2018-06-17T01:40:22.474Z,0.00
2018-06-17T01:41:54.282Z,0.00
2018-06-17T01:43:26.091Z,0.00
2018-06-17T01:44:57.900Z,0.00
2018-06-17T01:46:29.722Z,0.00
2018-06-17T01:48:01.521Z,0.00
2018-06-17T01:49:33.427Z,0.00
2018-06-17T01:51:05.137Z,0.00
2018-06-17T01:52:36.946Z,0.00
2018-06-17T01:54:08.755Z,0.00
2018-06-17T01:55:40.564Z,0.00
2018-06-17T01:57:12.372Z,0.00
2018-06-17T01:58:44.180Z,0.00
2018-06-17T02:00:15.991Z,0.00
2018-06-17T02:01:47.805Z,0.00
2018-06-17T02:03:19.608Z,0.00
2018-06-17T02:04:51.418Z,0.00
2018-06-17T02:06:23.227Z,0.00
2018-06-17T02:07:55.134Z,0.00
2018-06-17T02:09:26.842Z,0.00
2018-06-17T02:10:58.651Z,0.00
2018-06-17T02:12:30.461Z,0.00
2018-06-17T02:14:02.282Z,0.00
2018-06-17T02:15:34.080Z,0.00
2018-06-17T02:17:05.886Z,0.00
2018-06-17T02:18:37.695Z,0.00
2018-06-17T02:20:09.506Z,0.00
2018-06-17T02:21:41.314Z,0.00
2018-06-17T02:23:13.123Z,0.00
2018-06-17T02:24:44.931Z,0.00
2018-06-17T02:26:16.840Z,0.00
2018-06-17T02:27:48.550Z,0.00
2018-06-17T02:29:20.358Z,0.00
2018-06-17T02:30:52.168Z,0.00
2018-06-17T02:32:24.077Z,0.00
2018-06-17T02:33:55.786Z,0.00
2018-06-17T02:35:27.597Z,0.00
2018-06-17T02:36:59.406Z,0.00
2018-06-17T02:38:31.213Z,0.00
2018-06-17T02:40:03.022Z,0.00
2018-06-17T02:41:34.830Z,0.00
2018-06-17T02:43:06.693Z,0.00
2018-06-17T02:44:38.549Z,0.00
2018-06-17T02:46:10.260Z,0.00
2018-06-17T02:47:42.066Z,0.00
2018-06-17T02:49:13.874Z,0.00
2018-06-17T02:50:45.693Z,0.00
2018-06-17T02:52:17.493Z,0.00
2018-06-17T02:53:49.303Z,0.00
2018-06-17T02:55:21.110Z,0.00
2018-06-17T02:56:52.918Z,0.00
2018-06-17T02:58:24.727Z,0.00
2018-06-17T02:59:56.537Z,0.00
2018-06-17T03:01:28.345Z,0.00
2018-06-17T03:03:00.256Z,0.00
2018-06-17T03:04:31.965Z,0.00
2018-06-17T03:06:03.775Z,0.00
2018-06-17T03:07:35.581Z,0.00
2018-06-17T03:09:07.541Z,0.00
2018-06-17T03:10:39.199Z,0.00
2018-06-17T03:12:11.008Z,0.00
2018-06-17T03:13:42.817Z,0.00
2018-06-17T03:15:14.732Z,0.00
2018-06-17T03:16:46.434Z,0.00
2018-06-17T03:18:18.244Z,0.00
2018-06-17T03:19:50.054Z,0.00
2018-06-17T03:21:21.966Z,0.00
2018-06-17T03:22:53.673Z,0.00
2018-06-17T03:24:25.480Z,0.00
2018-06-17T03:25:57.286Z,0.00
2018-06-17T03:27:29.096Z,0.00
2018-06-17T03:29:00.904Z,0.00
2018-06-17T03:30:32.716Z,0.00
2018-06-17T03:32:04.522Z,0.00
2018-06-17T03:33:36.330Z,0.00
2018-06-17T03:35:08.139Z,0.00
2018-06-17T03:36:39.951Z,0.00
2018-06-17T03:38:11.758Z,0.00
2018-06-17T03:39:43.668Z,0.00
2018-06-17T03:41:15.374Z,0.00
2018-06-17T03:42:47.185Z,0.00
2018-06-17T03:44:18.993Z,0.00
2018-06-17T03:45:50.903Z,0.00
2018-06-17T03:47:22.610Z,0.00
2018-06-17T03:48:54.419Z,0.00
2018-06-17T03:50:26.229Z,0.00
2018-06-17T03:51:58.189Z,0.00
2018-06-17T03:53:29.847Z,0.00
2018-06-17T03:55:01.660Z,0.00
2018-06-17T03:56:33.466Z,0.00
2018-06-17T03:58:05.373Z,0.00
2018-06-17T03:59:37.081Z,0.00
2018-06-17T04:01:08.890Z,0.00
2018-06-17T04:02:40.700Z,0.00
2018-06-17T04:04:12.647Z,0.00
2018-06-17T04:05:44.318Z,0.00
2018-06-17T04:07:16.127Z,0.00
2018-06-17T04:08:47.935Z,0.00
2018-06-17T04:10:19.912Z,0.00
2018-06-17T04:11:51.555Z,0.00
2018-06-17T04:13:23.366Z,0.00
2018-06-17T04:14:55.171Z,0.00
2018-06-17T04:16:27.231Z,0.00
2018-06-17T04:17:58.787Z,0.00
2018-06-17T04:19:30.598Z,0.00
2018-06-17T04:21:02.410Z,0.00
2018-06-17T04:22:34.216Z,0.00
2018-06-17T04:24:06.025Z,0.00
2018-06-17T04:25:37.901Z,0.00
2018-06-17T04:27:09.641Z,0.00
2018-06-17T04:28:41.451Z,0.00
2018-06-17T04:30:13.260Z,0.00
2018-06-17T04:31:45.073Z,0.00
2018-06-17T04:33:16.882Z,0.00
2018-06-17T04:34:48.786Z,0.00
2018-06-17T04:36:20.495Z,0.00
2018-06-17T04:37:52.306Z,0.00
2018-06-17T04:39:24.113Z,0.00
2018-06-17T04:40:55.922Z,0.00
2018-06-17T04:42:27.731Z,0.00
2018-06-17T04:43:59.539Z,0.00
2018-06-17T04:45:31.349Z,0.00
2018-06-17T04:47:03.257Z,0.00
2018-06-17T04:48:34.968Z,0.00
2018-06-17T04:50:06.775Z,0.00
2018-06-17T04:51:38.583Z,0.00
2018-06-17T04:53:10.493Z,0.00
2018-06-17T04:54:42.201Z,0.00
2018-06-17T04:56:14.012Z,0.00
2018-06-17T04:57:45.818Z,0.00
2018-06-17T04:59:17.646Z,0.00
2018-06-17T05:00:49.437Z,0.00
2018-06-17T05:02:21.245Z,0.00
2018-06-17T05:03:53.055Z,0.00
2018-06-17T05:05:24.868Z,0.00
2018-06-17T05:06:56.671Z,0.00
2018-06-17T05:08:28.484Z,0.00
2018-06-17T05:10:00.292Z,0.00
2018-06-17T05:11:32.199Z,0.00
2018-06-17T05:13:03.907Z,0.00
2018-06-17T05:14:35.716Z,0.00
2018-06-17T05:16:07.525Z,0.00
2018-06-17T05:17:39.434Z,0.00
2018-06-17T05:19:11.142Z,0.00
2018-06-17T05:20:42.951Z,0.00
2018-06-17T05:22:14.765Z,0.00
2018-06-17T05:23:46.569Z,0.00
2018-06-17T05:25:18.377Z,0.00
2018-06-17T05:26:50.187Z,0.00
2018-06-17T05:28:21.997Z,0.00
2018-06-17T05:29:53.905Z,0.00
2018-06-17T05:31:25.611Z,0.00
2018-06-17T05:32:57.422Z,0.00
2018-06-17T05:34:29.231Z,0.00
2018-06-17T05:36:01.039Z,0.00
2018-06-17T05:37:32.847Z,0.00
2018-06-17T05:39:04.655Z,0.00
2018-06-17T05:40:36.463Z,0.00
2018-06-17T05:42:08.423Z,0.00
2018-06-17T05:43:40.081Z,0.00
2018-06-17T05:45:11.890Z,0.00
2018-06-17T05:46:43.702Z,0.00
2018-06-17T05:48:15.625Z,0.00
2018-06-17T05:49:47.319Z,0.00
2018-06-17T05:51:19.124Z,0.00
2018-06-17T05:52:50.934Z,0.00
2018-06-17T05:54:22.743Z,0.00
2018-06-17T05:55:54.552Z,0.00
2018-06-17T05:57:26.360Z,0.00
2018-06-17T05:58:58.168Z,0.00
2018-06-17T06:00:29.976Z,0.00
2018-06-17T06:02:01.785Z,0.00
2018-06-17T06:03:33.594Z,0.00
2018-06-17T06:05:05.403Z,0.00
2018-06-17T06:06:37.311Z,0.00
2018-06-17T06:08:09.020Z,0.00
2018-06-17T06:09:40.831Z,0.00
2018-06-17T06:11:12.640Z,0.00
2018-06-17T06:12:44.448Z,0.00
2018-06-17T06:14:16.257Z,0.00
2018-06-17T06:15:48.065Z,0.00
2018-06-17T06:17:19.874Z,0.00
2018-06-17T06:18:51.783Z,0.00
2018-06-17T06:20:23.492Z,0.00
2018-06-17T06:21:55.300Z,0.00
2018-06-17T06:23:27.111Z,0.00
2018-06-17T06:24:59.419Z,0.00
2018-06-17T06:26:30.727Z,0.00
2018-06-17T06:28:02.536Z,0.00
2018-06-17T06:29:34.346Z,0.00
2018-06-17T06:31:06.156Z,0.00
2018-06-17T06:32:37.964Z,0.00
2018-06-17T06:34:09.772Z,0.00
2018-06-17T06:35:41.581Z,0.00
2018-06-17T06:37:13.405Z,0.00
2018-06-17T06:38:45.198Z,0.00
2018-06-17T06:40:17.008Z,0.00
2018-06-17T06:41:48.816Z,0.00
2018-06-17T06:43:20.725Z,0.00
2018-06-17T06:44:52.435Z,0.00
2018-06-17T06:46:24.243Z,0.00
2018-06-17T06:47:56.052Z,0.00
2018-06-17T06:49:27.961Z,0.00
2018-06-17T06:50:59.693Z,0.00
2018-06-17T06:52:31.482Z,0.00
2018-06-17T06:54:03.305Z,0.00
2018-06-17T06:55:35.096Z,0.00
2018-06-17T06:57:06.904Z,0.00
2018-06-17T06:58:38.713Z,0.00
2018-06-17T07:00:10.522Z,0.00
2018-06-17T07:01:42.431Z,0.00
2018-06-17T07:03:14.139Z,0.00
2018-06-17T07:04:45.975Z,0.00
2018-06-17T07:06:17.760Z,0.00
2018-06-17T07:07:49.590Z,0.00
2018-06-17T07:09:21.374Z,0.00
2018-06-17T07:10:53.183Z,0.00
2018-06-17T07:12:24.991Z,0.00
2018-06-17T07:13:56.801Z,0.00
2018-06-17T07:15:28.609Z,0.00
2018-06-17T07:17:00.420Z,0.00
2018-06-17T07:18:32.226Z,0.00
2018-06-17T07:20:04.137Z,0.00
2018-06-17T07:21:35.844Z,0.00
2018-06-17T07:23:07.652Z,0.00
2018-06-17T07:24:39.462Z,0.00
2018-06-17T07:26:11.272Z,0.00
2018-06-17T07:27:43.079Z,0.00
2018-06-17T07:29:14.888Z,0.00
2018-06-17T07:30:46.698Z,0.00
2018-06-17T07:32:18.506Z,0.00
2018-06-17T07:33:50.315Z,0.00
2018-06-17T07:35:22.125Z,0.00
2018-06-17T07:36:53.936Z,0.00
2018-06-17T07:38:25.842Z,0.00
2018-06-17T07:39:57.552Z,0.00
2018-06-17T07:41:29.360Z,0.00
2018-06-17T07:43:01.170Z,0.00
2018-06-17T07:44:33.128Z,0.00
2018-06-17T07:46:04.786Z,0.00
2018-06-17T07:47:36.596Z,0.00
2018-06-17T07:49:08.406Z,0.00
2018-06-17T07:50:40.316Z,0.00
2018-06-17T07:52:12.024Z,0.00
2018-06-17T07:53:43.836Z,0.00
2018-06-17T07:55:15.641Z,0.00
2018-06-17T07:56:47.802Z,0.00
2018-06-17T07:58:19.260Z,0.00
2018-06-17T07:59:51.069Z,0.00
2018-06-17T08:01:22.879Z,0.00
2018-06-17T08:02:54.687Z,0.00
2018-06-17T08:04:26.495Z,0.00
2018-06-17T08:05:58.306Z,0.00
2018-06-17T08:07:30.114Z,0.00
2018-06-17T08:09:01.923Z,0.00
2018-06-17T08:10:33.734Z,0.00
2018-06-17T08:12:05.540Z,0.00
2018-06-17T08:13:37.351Z,0.00
2018-06-17T08:15:09.462Z,0.00
2018-06-17T08:16:40.968Z,0.00
2018-06-17T08:18:12.779Z,0.00
2018-06-17T08:19:44.587Z,0.00
2018-06-17T08:21:16.399Z,0.00
2018-06-17T08:22:48.205Z,0.00
2018-06-17T08:24:20.015Z,0.00
2018-06-17T08:25:51.823Z,0.00
2018-06-17T08:27:23.733Z,0.00
2018-06-17T08:28:55.442Z,0.00
2018-06-17T08:30:27.258Z,0.00
2018-06-17T08:31:59.060Z,0.00
2018-06-17T08:33:30.969Z,0.00
2018-06-17T08:35:02.682Z,0.00
2018-06-17T08:36:34.488Z,0.00
2018-06-17T08:38:06.297Z,0.00
2018-06-17T08:39:38.106Z,0.00
2018-06-17T08:41:09.916Z,0.00
2018-06-17T08:42:41.725Z,0.00
2018-06-17T08:44:13.535Z,0.00
2018-06-17T08:45:45.493Z,0.00
2018-06-17T08:47:17.156Z,0.00
2018-06-17T08:48:48.961Z,0.00
2018-06-17T08:50:20.772Z,0.00
2018-06-17T08:51:52.880Z,0.00
2018-06-17T08:53:24.389Z,0.00
2018-06-17T08:54:56.199Z,0.00
2018-06-17T08:56:28.008Z,0.00
2018-06-17T08:57:59.918Z,0.00
2018-06-17T08:59:31.627Z,0.00
2018-06-17T09:01:03.437Z,0.00
2018-06-17T09:02:35.246Z,0.00
2018-06-17T09:04:07.056Z,0.00
2018-06-17T09:05:38.865Z,0.00
2018-06-17T09:07:10.674Z,0.00
2018-06-17T09:08:42.487Z,0.00
2018-06-17T09:10:14.394Z,0.00
2018-06-17T09:11:46.103Z,0.00
2018-06-17T09:13:17.913Z,0.00
2018-06-17T09:14:49.724Z,0.00
2018-06-17T09:16:21.689Z,0.00
2018-06-17T09:17:53.341Z,0.00
2018-06-17T09:19:25.217Z,0.00
2018-06-17T09:20:56.972Z,0.00
2018-06-17T09:22:28.870Z,0.00
2018-06-17T09:24:00.585Z,0.00
2018-06-17T09:25:32.389Z,0.00
2018-06-17T09:27:04.198Z,0.00
2018-06-17T09:28:36.259Z,0.00
2018-06-17T09:30:07.819Z,0.00
2018-06-17T09:31:39.683Z,0.00
2018-06-17T09:33:11.438Z,0.00
2018-06-17T09:34:43.246Z,0.00
2018-06-17T09:36:15.057Z,0.00
2018-06-17T09:37:46.865Z,0.00
2018-06-17T09:39:18.695Z,0.00
2018-06-17T09:40:50.482Z,0.00
2018-06-17T09:42:22.291Z,0.00
2018-06-17T09:43:54.101Z,0.00
2018-06-17T09:45:25.912Z,0.00
2018-06-17T09:46:57.821Z,5.63
2018-06-17T09:48:29.530Z,5.63
2018-06-17T09:50:01.340Z,5.63
2018-06-17T09:51:33.150Z,5.63
2018-06-17T09:53:05.058Z,5.63
2018-06-17T09:54:36.767Z,11.25
2018-06-17T09:56:09.030Z,11.25
2018-06-17T09:57:40.389Z,16.88
2018-06-17T09:59:12.197Z,11.25
2018-06-17T10:00:44.008Z,11.25
2018-06-17T10:02:15.816Z,16.88
2018-06-17T10:05:19.536Z,22.50
2018-06-17T10:06:51.245Z,22.50
2018-06-17T10:08:23.055Z,22.50
2018-06-17T10:09:54.864Z,22.50
2018-06-17T10:11:26.679Z,28.13
2018-06-17T10:12:58.484Z,28.13
2018-06-17T10:14:30.297Z,28.13
2018-06-17T10:16:02.112Z,28.13
2018-06-17T10:17:34.064Z,28.13
2018-06-17T10:19:05.722Z,28.13
2018-06-17T10:20:37.532Z,33.75
2018-06-17T10:22:09.341Z,39.38
2018-06-17T10:23:41.401Z,45.00
2018-06-17T10:25:12.959Z,45.00
2018-06-17T10:26:44.768Z,50.63
2018-06-17T10:28:16.580Z,50.63
2018-06-17T10:29:48.490Z,56.25
2018-06-17T10:31:20.196Z,61.88
2018-06-17T10:32:52.006Z,78.75
2018-06-17T10:34:23.815Z,90.00
2018-06-17T10:35:55.630Z,90.00
2018-06-17T10:37:27.435Z,95.63
2018-06-17T10:38:59.244Z,106.88
2018-06-17T10:40:31.052Z,106.88
2018-06-17T10:42:02.961Z,112.50
2018-06-17T10:43:34.686Z,123.75
2018-06-17T10:45:06.481Z,135.00
2018-06-17T10:46:38.289Z,146.25
2018-06-17T10:48:10.099Z,151.88
2018-06-17T10:49:41.910Z,163.13
2018-06-17T10:52:45.532Z,174.38
2018-06-17T10:54:17.439Z,168.75
2018-06-17T10:55:49.237Z,174.38
2018-06-17T10:57:20.958Z,180.00
2018-06-17T10:58:52.771Z,185.63
2018-06-17T11:00:24.829Z,196.88
2018-06-17T11:01:56.390Z,191.25
2018-06-17T11:03:28.201Z,191.25
2018-06-17T11:05:00.012Z,185.63
2018-06-17T11:06:31.821Z,185.63
2018-06-17T11:09:35.441Z,208.13
2018-06-17T11:11:07.251Z,185.63
2018-06-17T11:12:39.061Z,196.88
2018-06-17T11:14:10.872Z,225.00
2018-06-17T11:15:42.682Z,230.63
2018-06-17T11:17:14.493Z,230.63
2018-06-17T11:18:46.402Z,213.75
2018-06-17T11:20:18.113Z,264.38
2018-06-17T11:21:49.925Z,247.50
2018-06-17T11:23:21.740Z,253.13
2018-06-17T11:24:53.549Z,258.75
2018-06-17T11:26:25.661Z,258.75
2018-06-17T11:27:57.168Z,241.88
2018-06-17T11:29:28.980Z,264.38
2018-06-17T11:31:00.889Z,264.38
2018-06-17T11:32:32.600Z,247.50
2018-06-17T11:34:04.412Z,241.88
2018-06-17T11:35:36.227Z,247.50
2018-06-17T11:37:08.134Z,241.88
2018-06-17T11:38:39.844Z,281.25
2018-06-17T11:41:43.466Z,264.38
2018-06-17T11:43:15.277Z,258.75
2018-06-17T11:44:47.090Z,264.38
2018-06-17T11:46:18.900Z,275.63
2018-06-17T11:47:50.714Z,275.63
2018-06-17T11:49:22.521Z,309.38
2018-06-17T11:50:54.348Z,371.25
2018-06-17T11:52:26.143Z,405.00
2018-06-17T11:53:58.158Z,376.88
2018-06-17T11:55:30.172Z,393.75
2018-06-17T11:57:01.781Z,348.75
2018-06-17T11:58:33.697Z,309.38
2018-06-17T12:00:05.200Z,354.38
2018-06-17T12:01:37.011Z,416.25
2018-06-17T12:03:08.821Z,438.75
2018-06-17T12:04:40.633Z,450.00
2018-06-17T12:06:12.445Z,461.25
2018-06-17T12:07:44.256Z,410.63
2018-06-17T12:09:16.066Z,371.25
2018-06-17T12:10:47.878Z,303.75
2018-06-17T12:13:51.807Z,230.63
2018-06-17T12:15:23.845Z,219.38
2018-06-17T12:16:55.152Z,236.25
2018-06-17T12:19:58.749Z,258.75
2018-06-17T12:21:30.557Z,315.00
2018-06-17T12:23:02.369Z,337.50
2018-06-17T12:24:34.179Z,371.25
2018-06-17T12:26:05.995Z,416.25
2018-06-17T12:27:37.803Z,388.13
2018-06-17T12:29:09.816Z,348.75
2018-06-17T12:30:41.426Z,320.63
2018-06-17T12:32:13.639Z,326.25
2018-06-17T12:33:45.049Z,337.50
2018-06-17T12:35:16.856Z,354.38
2018-06-17T12:36:48.665Z,371.25
2018-06-17T12:38:20.476Z,348.75
2018-06-17T12:39:52.291Z,331.88
2018-06-17T12:41:24.097Z,315.00
2018-06-17T12:42:55.909Z,331.88
2018-06-17T12:44:28.250Z,331.88
2018-06-17T12:45:59.579Z,309.38
2018-06-17T12:47:31.643Z,337.50
2018-06-17T12:49:03.199Z,348.75
2018-06-17T12:50:35.114Z,343.13
2018-06-17T12:52:06.974Z,343.13
2018-06-17T12:53:38.585Z,343.13
2018-06-17T12:55:10.392Z,405.00
2018-06-17T12:56:42.332Z,461.25
2018-06-17T12:58:14.013Z,478.13
2018-06-17T12:59:45.824Z,517.50
2018-06-17T13:02:49.546Z,596.25
2018-06-17T13:04:21.257Z,658.13
2018-06-17T13:05:53.067Z,815.63
2018-06-17T13:07:24.879Z,922.50
2018-06-17T13:08:56.790Z,1029.38
2018-06-17T13:10:28.502Z,1276.88
2018-06-17T13:13:32.127Z,894.38
2018-06-17T13:15:03.943Z,804.38
2018-06-17T13:16:35.753Z,703.13
2018-06-17T13:18:07.772Z,601.88
2018-06-17T13:19:39.684Z,641.25
2018-06-17T13:21:11.193Z,601.88
2018-06-17T13:22:43.006Z,489.38
2018-06-17T13:24:14.820Z,472.50
2018-06-17T13:25:46.639Z,511.88
2018-06-17T13:27:19.950Z,635.63
2018-06-17T13:28:50.260Z,618.75
2018-06-17T13:30:22.082Z,545.63
2018-06-17T13:31:53.891Z,472.50
2018-06-17T13:33:25.703Z,427.50
2018-06-17T13:34:57.517Z,438.75
2018-06-17T13:36:29.634Z,523.13
2018-06-17T13:38:01.143Z,472.50
2018-06-17T13:39:32.957Z,472.50
2018-06-17T13:41:04.775Z,478.13
2018-06-17T13:42:36.586Z,511.88
2018-06-17T13:44:08.399Z,568.13
2018-06-17T13:45:40.312Z,596.25
2018-06-17T13:47:12.026Z,618.75
2018-06-17T13:48:43.843Z,630.00
2018-06-17T13:50:15.959Z,652.50
2018-06-17T13:51:47.821Z,697.50
2018-06-17T13:53:19.283Z,630.00
2018-06-17T13:54:51.096Z,618.75
2018-06-17T13:56:22.910Z,675.00
2018-06-17T13:57:54.823Z,658.13
2018-06-17T13:59:26.538Z,618.75
2018-06-17T14:02:30.469Z,765.00
2018-06-17T14:04:02.534Z,838.13
2018-06-17T14:05:33.794Z,855.00
2018-06-17T14:07:05.812Z,883.13
2018-06-17T14:08:37.428Z,883.13
2018-06-17T14:10:09.242Z,866.25
2018-06-17T14:11:41.053Z,838.13
2018-06-17T14:13:12.871Z,776.25
2018-06-17T14:14:44.686Z,810.00
2018-06-17T14:16:16.501Z,888.75
2018-06-17T14:17:48.622Z,1012.50
2018-06-17T14:19:20.438Z,1074.38
2018-06-17T14:20:52.257Z,939.38
2018-06-17T14:22:24.417Z,759.38
2018-06-17T14:23:55.782Z,680.63
2018-06-17T14:25:27.398Z,585.00
2018-06-17T14:26:59.214Z,551.25
2018-06-17T14:28:31.028Z,551.25
2018-06-17T14:30:02.846Z,500.63
2018-06-17T14:31:34.661Z,472.50
2018-06-17T14:33:06.476Z,641.25
2018-06-17T14:34:38.694Z,562.50
2018-06-17T14:36:10.309Z,551.25
2018-06-17T14:37:41.922Z,534.38
2018-06-17T14:39:13.736Z,556.88
2018-06-17T14:40:45.651Z,579.38
2018-06-17T14:42:17.671Z,545.63
2018-06-17T14:43:49.214Z,540.00
2018-06-17T14:45:20.996Z,579.38
2018-06-17T14:46:52.862Z,568.13
2018-06-17T14:48:24.931Z,607.50
2018-06-17T14:49:56.440Z,573.75
2018-06-17T14:54:32.543Z,618.75
2018-06-17T14:57:35.518Z,691.88
2018-06-17T14:59:07.639Z,720.00
2018-06-17T15:00:39.250Z,725.63
2018-06-17T15:03:42.784Z,753.75
2018-06-17T15:05:14.595Z,736.88
2018-06-17T15:08:18.431Z,753.75
2018-06-17T15:09:50.056Z,697.50
2018-06-17T15:11:21.862Z,635.63
2018-06-17T15:14:26.028Z,658.13
2018-06-17T15:15:57.855Z,663.75
2018-06-17T15:17:29.126Z,613.13
2018-06-17T15:19:00.943Z,517.50
2018-06-17T15:20:32.860Z,438.75
2018-06-17T15:22:04.630Z,438.75
2018-06-17T15:23:36.596Z,562.50
2018-06-17T15:25:08.410Z,641.25
2018-06-17T15:26:40.025Z,624.38
2018-06-17T15:28:12.373Z,630.00
2018-06-17T15:31:15.474Z,742.50
2018-06-17T15:32:47.287Z,753.75
2018-06-17T15:34:19.107Z,793.13
2018-06-17T15:37:22.734Z,770.63
2018-06-17T15:38:54.853Z,703.13
2018-06-17T15:40:26.672Z,697.50
2018-06-17T15:41:58.389Z,675.00
2018-06-17T15:43:30.203Z,630.00
2018-06-17T15:45:01.816Z,601.88
2018-06-17T15:48:05.447Z,680.63
2018-06-17T15:49:37.264Z,708.75
2018-06-17T15:51:09.080Z,703.13
2018-06-17T15:52:40.895Z,697.50
2018-06-17T15:54:12.711Z,680.63
2018-06-17T15:55:44.528Z,680.63
2018-06-17T15:58:48.258Z,725.63
2018-06-17T16:00:20.181Z,686.25
2018-06-17T16:01:51.790Z,798.75
2018-06-17T16:04:55.422Z,855.00
2018-06-17T16:06:27.242Z,798.75
2018-06-17T16:07:59.055Z,770.63
2018-06-17T16:09:30.937Z,748.13
2018-06-17T16:11:02.689Z,742.50
2018-06-17T16:12:34.505Z,742.50
2018-06-17T16:14:06.323Z,663.75
2018-06-17T16:15:38.139Z,703.13
2018-06-17T16:17:10.112Z,787.50
2018-06-17T16:18:41.774Z,826.88
2018-06-17T16:20:13.794Z,877.50
2018-06-17T16:21:45.712Z,961.88
2018-06-17T16:23:17.241Z,984.38
2018-06-17T16:24:49.041Z,894.38
2018-06-17T16:26:20.857Z,708.75
2018-06-17T16:27:52.673Z,556.88
2018-06-17T16:29:24.652Z,545.63
2018-06-17T16:32:28.124Z,641.25
2018-06-17T16:33:59.939Z,618.75
2018-06-17T16:35:32.007Z,596.25
2018-06-17T16:37:03.776Z,618.75
2018-06-17T16:38:35.388Z,658.13
2018-06-17T16:40:07.213Z,618.75
2018-06-17T16:41:39.021Z,534.38
2018-06-17T16:43:10.841Z,466.88
2018-06-17T16:44:42.658Z,405.00
2018-06-17T16:47:46.288Z,388.13
2018-06-17T16:49:18.104Z,466.88
2018-06-17T16:50:50.120Z,483.75
2018-06-17T16:52:21.936Z,500.63
2018-06-17T16:53:53.952Z,528.75
2018-06-17T16:55:25.364Z,551.25
2018-06-17T16:56:57.178Z,568.13
2018-06-17T16:58:28.992Z,573.75
2018-06-17T17:00:00.807Z,551.25
2018-06-17T17:01:32.623Z,562.50
2018-06-17T17:03:04.437Z,579.38
2018-06-17T17:04:36.251Z,579.38
2018-06-17T17:06:08.168Z,579.38
2018-06-17T17:07:40.387Z,545.63
2018-06-17T17:09:12.231Z,568.13
2018-06-17T17:10:44.045Z,590.63
2018-06-17T17:12:15.428Z,596.25
2018-06-17T17:13:47.141Z,646.88
2018-06-17T17:15:18.956Z,725.63
2018-06-17T17:16:50.772Z,781.88
2018-06-17T17:18:22.585Z,703.13
2018-06-17T17:19:54.400Z,641.25
2018-06-17T17:21:26.216Z,618.75
2018-06-17T17:24:30.149Z,753.75
2018-06-17T17:27:33.481Z,922.50
2018-06-17T17:29:05.290Z,1743.75
2018-06-17T17:30:37.406Z,1080.00
2018-06-17T17:32:08.921Z,1046.25
2018-06-17T17:33:40.739Z,1220.63
2018-06-17T17:35:12.555Z,1558.13
2018-06-17T17:36:44.472Z,1383.75
2018-06-17T17:38:16.190Z,1980.00
2018-06-17T17:39:48.008Z,2002.50
2018-06-17T17:41:19.825Z,1023.75
2018-06-17T17:44:23.462Z,1136.25
2018-06-17T17:45:55.282Z,1057.50
2018-06-17T17:47:27.104Z,1288.13
2018-06-17T17:48:59.124Z,1102.50
2018-06-17T17:50:30.889Z,1665.00
2018-06-17T17:52:02.559Z,1102.50
2018-06-17T17:55:06.194Z,720.00
2018-06-17T17:56:38.017Z,753.75
2018-06-17T17:58:10.439Z,1490.63
2018-06-17T18:01:13.467Z,967.50
2018-06-17T18:02:45.590Z,703.13
2018-06-17T18:04:17.109Z,585.00
2018-06-17T18:05:48.923Z,528.75
2018-06-17T18:07:20.742Z,562.50
2018-06-17T18:10:24.631Z,776.25
2018-06-17T18:11:56.398Z,1018.13
2018-06-17T18:14:59.831Z,579.38
2018-06-17T18:18:04.405Z,534.38
2018-06-17T18:19:35.282Z,450.00
2018-06-17T18:21:07.133Z,455.63
2018-06-17T18:22:39.423Z,410.63
2018-06-17T18:24:10.731Z,399.38
2018-06-17T18:25:42.550Z,421.88
2018-06-17T18:27:14.667Z,382.50
2018-06-17T18:28:46.383Z,292.50
2018-06-17T18:31:50.110Z,213.75
2018-06-17T18:33:21.826Z,219.38
2018-06-17T18:34:53.439Z,202.50
2018-06-17T18:36:25.253Z,196.88
2018-06-17T18:37:57.167Z,174.38
2018-06-17T18:39:28.882Z,174.38
2018-06-17T18:41:00.700Z,163.13
2018-06-17T18:42:32.510Z,151.88
2018-06-17T18:44:04.323Z,129.38
2018-06-17T18:45:36.148Z,140.63
2018-06-17T18:48:39.763Z,185.63
2018-06-17T18:50:11.676Z,185.63
2018-06-17T18:51:43.388Z,191.25
2018-06-17T18:53:15.202Z,174.38
2018-06-17T18:54:47.013Z,168.75
2018-06-17T18:56:18.828Z,174.38
2018-06-17T18:57:50.638Z,180.00
2018-06-17T18:59:22.452Z,174.38
2018-06-17T19:02:26.075Z,168.75
2018-06-17T19:03:57.888Z,168.75
2018-06-17T19:05:29.902Z,129.38
2018-06-17T19:07:01.513Z,174.38
2018-06-17T19:08:33.423Z,185.63
2018-06-17T19:10:05.136Z,135.00
2018-06-17T19:11:36.947Z,112.50
2018-06-17T19:13:08.758Z,101.25
2018-06-17T19:14:40.606Z,112.50
2018-06-17T19:16:12.386Z,118.13
2018-06-17T19:17:44.193Z,118.13
2018-06-17T19:19:16.005Z,106.88
2018-06-17T19:20:47.870Z,84.38
2018-06-17T19:22:19.632Z,78.75
2018-06-17T19:23:51.442Z,84.38
2018-06-17T19:25:23.251Z,84.38
2018-06-17T19:26:55.163Z,84.38
2018-06-17T19:28:26.874Z,78.75
2018-06-17T19:29:58.685Z,73.13
2018-06-17T19:31:30.495Z,73.13
2018-06-17T19:33:02.307Z,61.88
2018-06-17T19:34:34.119Z,67.50
2018-06-17T19:36:05.928Z,61.88
2018-06-17T19:37:37.738Z,61.88
2018-06-17T19:39:09.704Z,78.75
2018-06-17T19:40:41.406Z,84.38
2018-06-17T19:42:13.171Z,90.00
2018-06-17T19:43:44.982Z,78.75
2018-06-17T19:45:16.890Z,78.75
2018-06-17T19:46:48.601Z,61.88
2018-06-17T19:48:20.412Z,61.88
2018-06-17T19:49:52.220Z,50.63
2018-06-17T19:51:24.031Z,61.88
2018-06-17T19:52:55.842Z,45.00
2018-06-17T19:55:59.462Z,45.00
2018-06-17T19:57:31.280Z,45.00
2018-06-17T19:59:03.082Z,45.00
2018-06-17T20:00:34.909Z,45.00
2018-06-17T20:02:06.704Z,39.38
2018-06-17T20:03:38.613Z,39.38
2018-06-17T20:05:10.324Z,39.38
2018-06-17T20:06:42.134Z,33.75
2018-06-17T20:08:13.944Z,33.75
2018-06-17T20:09:45.755Z,28.13
2018-06-17T20:11:17.564Z,28.13
2018-06-17T20:12:49.378Z,28.13
2018-06-17T20:14:21.220Z,22.50
2018-06-17T20:15:52.995Z,22.50
2018-06-17T20:17:24.854Z,16.88
2018-06-17T20:18:56.616Z,16.88
2018-06-17T20:20:28.426Z,11.25
2018-06-17T20:22:00.334Z,11.25
2018-06-17T20:23:32.045Z,11.25
2018-06-17T20:25:03.855Z,5.63
2018-06-17T20:26:35.665Z,5.63
2018-06-17T20:28:07.478Z,0.00
2018-06-17T20:29:39.285Z,0.00
2018-06-17T20:31:11.094Z,0.00
2018-06-17T20:32:42.905Z,0.00
2018-06-17T20:34:14.713Z,0.00
2018-06-17T20:35:46.523Z,0.00
2018-06-17T20:37:18.333Z,0.00
2018-06-17T20:38:50.145Z,0.00
2018-06-17T20:40:22.054Z,0.00